Time;durP1;ratioP1;P1;durP2;ratioP2;P2;SDS_P1;SDS_P2;PMS_P1;PMS_P2;Temp;Humidity;BMP_temperature;BMP_pressure;BME280_temperature;BME280_humidity;BME280_pressure;Samples;Min_cycle;Max_cycle;Signal;HPM_P1;HPM_P2
2021/09/22 00:02:43;;;;;;;1.85;0.95;;;;;;;;;;21078450;28;20056;-55
2021/09/22 00:12:47;;;;;;;2.35;0.90;;;;;;;;;;21089313;28;20495;-54
2021/09/22 00:22:50;;;;;;;1.88;0.73;;;;;;;;;;21089381;28;20499;-53
2021/09/22 00:32:52;;;;;;;1.92;0.80;;;;;;;;;;21087875;28;20532;-54
2021/09/22 00:42:54;;;;;;;2.30;0.93;;;;;;;;;;21087446;28;20123;-53
2021/09/22 00:52:56;;;;;;;2.38;0.98;;;;;;;;;;21086407;28;20060;-53
2021/09/22 01:02:58;;;;;;;3.00;0.90;;;;;;;;;;21086720;28;20098;-54
2021/09/22 01:13:00;;;;;;;2.10;1.00;;;;;;;;;;21084640;28;20196;-54
2021/09/22 01:23:03;;;;;;;2.45;1.00;;;;;;;;;;21083409;28;20089;-54
2021/09/22 01:33:10;;;;;;;2.28;1.05;;;;;;;;;;21066455;28;20105;-58
2021/09/22 01:43:11;;;;;;;2.45;1.00;;;;;;;;;;21082471;28;20407;-53
2021/09/22 01:53:15;;;;;;;1.97;1.20;;;;;;;;;;21082209;28;20519;-55
2021/09/22 02:03:17;;;;;;;2.78;1.10;;;;;;;;;;21080589;28;20342;-54
2021/09/22 02:13:20;;;;;;;2.35;1.00;;;;;;;;;;21080060;28;20385;-56
2021/09/22 02:23:22;;;;;;;2.60;1.40;;;;;;;;;;21079737;28;20048;-54
2021/09/22 02:33:44;;;;;;;3.53;1.10;;;;;;;;;;21079708;28;20048;-52
2021/09/22 02:43:53;;;;;;;1.63;0.82;;;;;;;;;;21078638;28;20040;-53
2021/09/22 02:53:57;;;;;;;2.00;0.90;;;;;;;;;;21079179;28;20138;-53
2021/09/22 03:04:00;;;;;;;3.30;1.63;;;;;;;;;;21078295;28;20486;-54
2021/09/22 03:14:04;;;;;;;3.15;1.08;;;;;;;;;;21077482;28;20048;-53
2021/09/22 03:24:08;;;;;;;2.03;0.83;;;;;;;;;;21078649;28;20472;-54
2021/09/22 03:34:10;;;;;;;4.25;1.77;;;;;;;;;;21077558;28;20475;-54
2021/09/22 03:44:13;;;;;;;1.73;0.98;;;;;;;;;;21080512;28;20040;-54
2021/09/22 03:54:16;;;;;;;2.17;1.10;;;;;;;;;;21090795;28;20136;-53
2021/09/22 04:04:19;;;;;;;2.10;1.00;;;;;;;;;;21090332;28;20076;-53
2021/09/22 04:14:22;;;;;;;2.05;1.20;;;;;;;;;;21091058;28;20396;-54
2021/09/22 04:24:24;;;;;;;3.50;1.40;;;;;;;;;;21089287;28;20044;-53
2021/09/22 04:34:26;;;;;;;2.55;1.40;;;;;;;;;;21088176;28;20090;-53
2021/09/22 04:44:32;;;;;;;2.47;1.50;;;;;;;;;;21086833;28;20052;-52
2021/09/22 04:54:36;;;;;;;5.68;1.25;;;;;;;;;;21085383;28;20483;-55
2021/09/22 05:04:38;;;;;;;2.05;1.23;;;;;;;;;;21085704;28;20500;-54
2021/09/22 05:14:41;;;;;;;2.80;1.23;;;;;;;;;;21084842;28;20056;-55
2021/09/22 05:24:43;;;;;;;1.98;1.00;;;;;;;;;;21066198;28;20131;-53
2021/09/22 05:34:46;;;;;;;3.55;1.17;;;;;;;;;;21083333;28;20079;-54
2021/09/22 05:44:48;;;;;;;2.42;1.30;;;;;;;;;;21082374;28;20503;-53
2021/09/22 05:54:51;;;;;;;3.60;1.50;;;;;;;;;;21082302;28;20070;-56
2021/09/22 06:04:52;;;;;;;2.90;1.20;;;;;;;;;;21080843;28;20055;-53
2021/09/22 06:14:56;;;;;;;3.08;1.73;;;;;;;;;;21079841;28;20055;-54
2021/09/22 06:24:58;;;;;;;2.60;1.35;;;;;;;;;;21079004;28;20051;-54
2021/09/22 06:35:01;;;;;;;3.13;1.50;;;;;;;;;;21078525;28;20125;-53
2021/09/22 06:45:04;;;;;;;3.13;1.30;;;;;;;;;;21078162;28;20048;-58
2021/09/22 06:55:06;;;;;;;2.10;1.42;;;;;;;;;;21078354;28;20048;-58
2021/09/22 07:05:09;;;;;;;3.30;1.50;;;;;;;;;;21077757;28;20080;-56
2021/09/22 07:15:12;;;;;;;6.55;1.83;;;;;;;;;;21077591;28;20399;-58
2021/09/22 07:25:15;;;;;;;5.50;1.60;;;;;;;;;;21092634;28;20044;-58
2021/09/22 07:35:18;;;;;;;2.63;1.30;;;;;;;;;;21093079;28;20549;-58
2021/09/22 07:45:21;;;;;;;3.85;1.60;;;;;;;;;;21092059;28;20040;-53
2021/09/22 07:55:23;;;;;;;8.80;1.50;;;;;;;;;;21091969;28;20056;-55
2021/09/22 08:05:25;;;;;;;4.10;1.90;;;;;;;;;;21090160;28;20059;-56
2021/09/22 08:15:29;;;;;;;4.65;1.58;;;;;;;;;;21089917;28;20084;-53
2021/09/22 08:25:32;;;;;;;2.63;1.55;;;;;;;;;;21070525;28;20052;-64
2021/09/22 08:35:35;;;;;;;3.88;1.95;;;;;;;;;;21088153;28;20048;-55
2021/09/22 08:45:38;;;;;;;6.07;2.20;;;;;;;;;;21087310;28;20055;-55
2021/09/22 08:55:41;;;;;;;5.50;2.30;;;;;;;;;;21085953;28;20138;-58
2021/09/22 09:05:43;;;;;;;6.20;2.30;;;;;;;;;;21085334;28;20055;-54
2021/09/22 09:15:47;;;;;;;4.60;1.90;;;;;;;;;;21085524;28;20052;-54
2021/09/22 09:25:57;;;;;;;7.78;1.83;;;;;;;;;;21084364;28;20128;-54
2021/09/22 09:36:14;;;;;;;6.78;1.52;;;;;;;;;;21065052;28;20055;-55
2021/09/22 09:46:20;;;;;;;3.67;2.00;;;;;;;;;;21081811;28;20083;-54
2021/09/22 09:56:23;;;;;;;6.20;2.20;;;;;;;;;;21081781;28;20135;-57
2021/09/22 10:06:25;;;;;;;6.22;2.25;;;;;;;;;;21080247;28;20131;-56
2021/09/22 10:16:29;;;;;;;4.47;2.35;;;;;;;;;;21079880;28;20124;-54
2021/09/22 10:26:33;;;;;;;2.85;1.73;;;;;;;;;;21099322;28;20044;-54
2021/09/22 10:36:36;;;;;;;;;;;;;;;;;;21154977;28;20475;-57
2021/09/22 10:46:39;;;;;;;4.95;1.88;;;;;;;;;;21161205;28;19923;-52
2021/09/22 10:56:48;;;;;;;4.47;2.00;;;;;;;;;;21170006;28;20055;-58
2021/09/22 11:06:55;;;;;;;12.85;2.72;;;;;;;;;;21178711;28;20104;-58
2021/09/22 11:17:00;;;;;;;6.32;3.35;;;;;;;;;;21171020;28;20058;-48
2021/09/22 11:27:05;;;;;;;4.53;1.75;;;;;;;;;;21175970;28;20043;-51
2021/09/22 11:37:14;;;;;;;2.63;1.60;;;;;;;;;;21175970;28;20415;-50
2021/09/22 11:47:17;;;;;;;3.15;1.73;;;;;;;;;;21175447;28;20092;-51
2021/09/22 11:57:21;;;;;;;5.38;2.13;;;;;;;;;;21166818;28;20395;-55
2021/09/22 12:07:23;;;;;;;;;;;;;;;;;;21174953;28;20056;-53
2021/09/22 12:17:33;;;;;;;2.90;1.57;;;;;;;;;;21174460;28;20240;-52
2021/09/22 12:27:36;;;;;;;6.40;1.90;;;;;;;;;;21173080;28;20127;-55
2021/09/22 12:37:39;;;;;;;2.95;1.30;;;;;;;;;;21171395;28;20054;-53
2021/09/22 12:47:50;;;;;;;1.85;1.15;;;;;;;;;;21171976;28;20051;-57
2021/09/22 12:57:55;;;;;;;2.67;1.50;;;;;;;;;;21170698;28;20090;-52
2021/09/22 13:07:58;;;;;;;3.40;1.10;;;;;;;;;;21169866;28;20094;-52
2021/09/22 13:18:04;;;;;;;3.25;1.30;;;;;;;;;;21168730;28;20502;-53
2021/09/22 13:28:07;;;;;;;1.30;0.80;;;;;;;;;;21168152;28;20059;-60
2021/09/22 13:38:15;;;;;;;2.75;1.00;;;;;;;;;;21167225;28;20047;-61
2021/09/22 13:48:22;;;;;;;5.20;2.55;;;;;;;;;;21167829;28;20048;-57
2021/09/22 13:58:25;;;;;;;;;;;;;;;;;;21167373;28;20050;-55
2021/09/22 14:08:28;;;;;;;4.22;1.30;;;;;;;;;;21166359;28;20340;-53
2021/09/22 14:18:31;;;;;;;2.40;1.53;;;;;;;;;;21164453;28;20079;-52
2021/09/22 14:28:33;;;;;;;1.55;0.93;;;;;;;;;;21164145;28;20163;-52
2021/09/22 14:38:35;;;;;;;2.17;1.00;;;;;;;;;;21163248;28;20048;-53
2021/09/22 14:48:37;;;;;;;2.30;1.42;;;;;;;;;;21162520;28;20079;-52
2021/09/22 14:58:39;;;;;;;2.17;1.02;;;;;;;;;;21162995;28;20510;-54
2021/09/22 15:08:40;;;;;;;2.13;1.17;;;;;;;;;;21162470;28;20488;-52
2021/09/22 15:18:42;;;;;;;2.75;1.30;;;;;;;;;;21143839;28;20088;-59
2021/09/22 15:28:44;;;;;;;2.33;1.10;;;;;;;;;;21162027;28;20427;-52
2021/09/22 15:38:46;;;;;;;1.75;1.00;;;;;;;;;;21163260;28;20051;-53
2021/09/22 15:48:48;;;;;;;2.72;1.00;;;;;;;;;;21176577;28;20095;-52
2021/09/22 15:58:50;;;;;;;2.50;1.20;;;;;;;;;;21157661;28;20131;-55
2021/09/22 16:08:52;;;;;;;2.35;1.00;;;;;;;;;;21174238;28;20040;-54
2021/09/22 16:18:54;;;;;;;2.73;1.27;;;;;;;;;;21174013;28;20051;-53
2021/09/22 16:28:56;;;;;;;2.60;1.10;;;;;;;;;;21172776;28;20502;-53
2021/09/22 16:38:58;;;;;;;2.65;1.40;;;;;;;;;;21172253;28;20051;-51
2021/09/22 16:49:02;;;;;;;3.15;1.10;;;;;;;;;;21171809;28;20047;-57
2021/09/22 16:59:05;;;;;;;2.80;1.33;;;;;;;;;;21170544;28;20063;-55
2021/09/22 17:09:07;;;;;;;2.77;1.33;;;;;;;;;;21169026;28;20100;-53
2021/09/22 17:19:09;;;;;;;2.33;1.20;;;;;;;;;;21168290;28;20048;-51
2021/09/22 17:29:11;;;;;;;3.35;1.60;;;;;;;;;;21167176;28;20470;-52
2021/09/22 17:39:13;;;;;;;2.60;1.30;;;;;;;;;;21166741;28;20132;-57
2021/09/22 17:49:16;;;;;;;2.63;1.50;;;;;;;;;;21165773;28;20055;-59
2021/09/22 17:59:18;;;;;;;3.83;1.83;;;;;;;;;;21165242;28;20059;-56
2021/09/22 18:09:20;;;;;;;4.22;1.60;;;;;;;;;;21164561;28;20123;-52
2021/09/22 18:19:21;;;;;;;3.45;1.85;;;;;;;;;;21163703;28;20527;-51
2021/09/22 18:29:24;;;;;;;3.53;1.83;;;;;;;;;;21163716;28;20043;-51
2021/09/22 18:39:25;;;;;;;6.87;2.50;;;;;;;;;;21164869;28;20043;-51
2021/09/22 18:49:28;;;;;;;4.30;2.80;;;;;;;;;;21162890;28;20059;-51
2021/09/22 18:59:29;;;;;;;7.30;4.38;;;;;;;;;;21162909;28;20388;-52
2021/09/22 19:09:31;;;;;;;11.45;6.35;;;;;;;;;;21161453;28;20039;-51
2021/09/22 19:19:33;;;;;;;8.38;4.47;;;;;;;;;;21173870;28;20056;-52
2021/09/22 19:29:35;;;;;;;8.32;4.13;;;;;;;;;;21178433;28;20449;-51
2021/09/22 19:39:36;;;;;;;7.80;4.57;;;;;;;;;;21178164;28;20532;-51
2021/09/22 19:49:38;;;;;;;3.10;1.85;;;;;;;;;;21177067;28;20082;-52
2021/09/22 19:59:41;;;;;;;4.60;1.85;;;;;;;;;;21175842;28;20412;-53
2021/09/22 20:09:43;;;;;;;2.72;1.23;;;;;;;;;;21174130;28;20047;-55
2021/09/22 20:19:45;;;;;;;2.70;1.50;;;;;;;;;;21174164;28;20083;-56
2021/09/22 20:29:47;;;;;;;2.33;1.40;;;;;;;;;;21154532;28;20083;-55
2021/09/22 20:39:49;;;;;;;3.03;1.67;;;;;;;;;;21172583;28;20056;-53
2021/09/22 20:49:51;;;;;;;2.75;1.45;;;;;;;;;;21172361;28;20052;-52
2021/09/22 20:59:53;;;;;;;2.42;1.17;;;;;;;;;;21172086;28;20116;-52
2021/09/22 21:09:55;;;;;;;1.80;1.20;;;;;;;;;;21171205;28;20135;-52
2021/09/22 21:19:57;;;;;;;4.95;1.38;;;;;;;;;;21169228;28;20048;-50
2021/09/22 21:29:58;;;;;;;3.33;1.20;;;;;;;;;;21168763;28;20056;-51
2021/09/22 21:40:00;;;;;;;3.13;1.30;;;;;;;;;;21167773;28;20101;-51
2021/09/22 21:50:03;;;;;;;3.40;1.15;;;;;;;;;;21167048;28;20085;-52
2021/09/22 22:00:12;;;;;;;1.80;1.10;;;;;;;;;;21167324;28;20070;-53
2021/09/22 22:10:16;;;;;;;2.70;1.30;;;;;;;;;;21165574;28;20043;-59
2021/09/22 22:20:18;;;;;;;2.87;1.40;;;;;;;;;;21165342;28;20056;-52
2021/09/22 22:30:20;;;;;;;2.40;1.17;;;;;;;;;;21164320;28;20060;-51
2021/09/22 22:40:22;;;;;;;3.33;1.60;;;;;;;;;;21163399;28;20070;-51
2021/09/22 22:50:23;;;;;;;3.75;1.25;;;;;;;;;;21162841;28;20047;-51
2021/09/22 23:00:25;;;;;;;4.25;1.50;;;;;;;;;;21162928;28;20075;-51
2021/09/22 23:10:27;;;;;;;4.40;1.45;;;;;;;;;;21163356;28;20048;-53
2021/09/22 23:20:42;;;;;;;2.92;1.42;;;;;;;;;;21162090;28;20048;-52
2021/09/22 23:30:45;;;;;;;4.38;1.58;;;;;;;;;;21161708;28;20079;-56
2021/09/22 23:40:46;;;;;;;3.25;1.55;;;;;;;;;;21161215;28;20082;-63
2021/09/22 23:50:48;;;;;;;3.47;1.42;;;;;;;;;;21160979;28;20051;-52
